Latest Weather Observations for Troughton Island

IDW60801

Issued at 10:23 am WST Tuesday 22 September 2020 (issued every 10 minutes, with the page automatically refreshed every 10 minutes)

About weather observations | Map of weather stations | Latest weather observations for WA | Other Formats
Station Details ID: 001007 Name: TROUGHTON ISLAND Lat: -13.75 Lon: 126.15 Height: 6.0 m
Data from the previous 72 hours. | See also: Recent months at Troughton Island
Date/Time
WST
Temp
°C
App
Temp
°C
Dew
Point
°C
Rel
Hum
%
Delta-T
°C
Wind Press
QNH
hPa
Press
MSL
hPa
Rain since
9am
mm
Dir  Spd
km/h
Gust
km/h
Spd
kts
Gust
kts
22/10:00am 30.0 34.4 25.1 75 3.4 E 11 13 6 7 1013.0 1012.9 0.0
22/09:30am 29.4 34.7 25.2 78 3.0 SW 7 9 4 5 1013.1 1013.0 0.0
22/09:00am 29.6 34.7 25.6 79 2.8 SW 9 11 5 6 1013.0 1012.9 0.0
22/08:30am 29.5 34.2 25.5 79 2.8 W 11 15 6 8 1012.6 1012.5 0.0
22/08:00am 29.2 33.6 25.6 81 2.5 W 13 17 7 9 1012.4 1012.3 0.0
22/07:30am 29.1 33.5 25.7 82 2.4 WNW 13 17 7 9 1012.2 1012.1 0.0
22/07:00am 28.5 33.3 25.7 85 2.0 WNW 11 13 6 7 1012.2 1012.1 0.0
22/06:30am 27.9 32.6 26.1 90 1.3 SW 13 15 7 8 1011.7 1011.6 0.0
22/06:00am 26.9 30.6 25.7 93 0.8 NW 17 20 9 11 1011.2 1011.1 0.0
22/05:30am 26.6 30.2 25.6 94 0.7 NNW 17 19 9 10 1010.8 1010.7 0.0
22/05:00am 26.7 30.8 25.7 94 0.7 NNW 15 19 8 10 1010.6 1010.5 0.0
22/04:30am 26.6 30.5 25.4 93 0.8 NNW 15 19 8 10 1010.2 1010.1 0.0
22/04:00am 26.6 30.5 25.4 93 0.8 NNW 15 17 8 9 1010.1 1010.0 0.0
22/03:30am 26.6 30.8 25.4 93 0.8 NNW 13 17 7 9 1010.0 1009.9 0.0
22/03:00am 27.0 30.6 25.6 92 1.0 N 17 19 9 10 1009.8 1009.7 0.0
22/02:30am 26.9 30.4 25.5 92 1.0 NNW 17 20 9 11 1009.8 1009.7 0.0
22/02:00am 26.9 30.7 25.3 91 1.1 NNW 15 19 8 10 1010.0 1009.9 0.0
22/01:30am 26.9 30.9 25.1 90 1.3 N 13 15 7 8 1009.9 1009.8 0.0
22/01:00am 27.1 31.5 25.1 89 1.4 N 11 15 6 8 1010.2 1010.1 0.0
22/12:30am 26.9 31.3 25.1 90 1.3 N 11 13 6 7 1010.3 1010.2 0.0
22/12:00am 26.7 31.3 24.7 89 1.4 NNW 9 11 5 6 1010.6 1010.5 0.0
 
Date/Time
WST
Temp
°C
App
Temp
°C
Dew
Point
°C
Rel
Hum
%
Delta-T
°C
Wind Press
QNH
hPa
Press
MSL
hPa
Rain since
9am
mm
Dir  Spd
km/h
Gust
km/h
Spd
kts
Gust
kts
21/11:30pm 26.6 31.5 24.6 89 1.4 NW 7 9 4 5 1010.8 1010.7 0.0
21/11:00pm 26.8 31.7 24.6 88 1.5 NW 7 9 4 5 1011.0 1010.9 0.0
21/10:30pm 27.2 31.8 24.8 87 1.7 WNW 9 11 5 6 1011.2 1011.1 0.0
21/10:00pm 26.9 31.3 24.5 87 1.7 WNW 9 9 5 5 1011.3 1011.2 0.0
21/09:30pm 27.0 31.1 24.6 87 1.7 W 11 11 6 6 1011.2 1011.1 0.0
21/09:00pm 27.1 31.6 24.6 86 1.7 WNW 9 11 5 6 1011.2 1011.1 0.0
21/08:30pm 27.1 31.2 24.6 86 1.7 WNW 11 11 6 6 1011.0 1010.9 0.0
21/08:00pm 27.3 31.4 24.6 85 1.9 NW 11 13 6 7 1010.8 1010.7 0.0
21/07:30pm 27.6 31.5 24.8 85 2.0 WNW 13 15 7 8 1010.6 1010.5 0.0
21/07:00pm 27.7 31.2 24.9 85 2.0 NW 15 17 8 9 1010.5 1010.4 0.0
21/06:30pm 27.8 30.8 24.6 83 2.2 NW 17 20 9 11 1010.2 1010.1 0.0
21/06:00pm 28.0 30.7 24.8 83 2.2 NW 19 20 10 11 1009.7 1009.6 0.0
21/05:30pm 28.3 31.0 24.7 81 2.5 NW 19 22 10 12 1009.5 1009.4 0.0
21/05:00pm 29.1 31.7 24.9 78 2.9 NW 20 24 11 13 1009.1 1009.0 0.0
21/04:30pm 29.8 32.3 24.7 74 3.6 NW 20 24 11 13 1008.9 1008.8 0.0
21/04:00pm 30.0 32.6 24.9 74 3.6 NW 20 26 11 14 1008.7 1008.6 0.0
21/03:30pm 30.5 32.5 24.6 70 4.1 NW 22 28 12 15 1008.4 1008.3 0.0
21/03:00pm 30.8 33.4 24.9 71 4.2 NW 20 24 11 13 1008.4 1008.3 0.0
21/02:30pm 30.8 33.6 24.9 71 4.1 NW 19 22 10 12 1008.6 1008.5 0.0
21/02:00pm 31.0 33.6 24.9 70 4.3 WNW 20 24 11 13 1008.6 1008.5 0.0
21/01:30pm 31.2 33.3 25.3 71 4.2 WNW 24 26 13 14 1008.7 1008.6 0.0
21/01:00pm 31.0 33.5 25.4 72 4.0 WNW 22 26 12 14 1009.0 1008.9 0.0
21/12:30pm 30.5 32.5 24.6 70 4.1 NW 22 26 12 14 1009.4 1009.3 0.0
21/12:00pm 31.5 34.4 25.4 70 4.3 WNW 20 24 11 13 1009.9 1009.8 0.0
21/11:30am 30.9 33.4 25.3 72 4.0 NW 22 24 12 13 1010.6 1010.5 0.0
21/11:00am 30.8 33.4 24.9 71 4.1 WNW 20 24 11 13 1011.0 1010.9 0.0
21/10:30am 30.7 33.1 24.6 70 4.3 WNW 20 24 11 13 1011.6 1011.5 0.0
21/10:00am 30.4 32.9 24.8 72 3.9 WNW 20 22 11 12 1011.9 1011.8 0.0
21/09:30am 30.5 33.0 24.4 70 4.3 WNW 19 20 10 11 1012.3 1012.2 0.0
21/09:00am 29.9 32.7 24.3 72 3.9 W 17 20 9 11 1012.5 1012.4 0.0
21/08:30am 30.0 32.6 23.9 70 4.2 WSW 17 20 9 11 1012.8 1012.7 0.0
21/08:00am 29.4 32.3 24.5 75 3.4 WSW 17 22 9 12 1012.7 1012.6 0.0
21/07:30am 29.1 31.3 24.9 78 2.9 WSW 22 28 12 15 1012.3 1012.2 0.0
21/07:00am 28.5 29.7 24.5 79 2.8 WSW 26 30 14 16 1011.8 1011.7 0.0
21/06:30am 28.0 29.5 24.4 81 2.5 WSW 24 30 13 16 1011.6 1011.5 0.0
21/06:00am 27.4 28.0 24.1 82 2.3 WSW 28 33 15 18 1011.3 1011.2 0.0
21/05:30am 27.3 27.9 24.2 83 2.1 WSW 28 32 15 17 1011.3 1011.2 0.0
21/05:00am 27.4 28.4 24.1 82 2.3 W 26 32 14 17 1011.1 1011.0 0.0
21/04:30am 27.5 28.6 23.7 80 2.6 W 24 30 13 16 1011.0 1010.9 0.0
21/04:00am 27.5 28.0 23.3 78 2.9 W 26 30 14 16 1010.6 1010.5 0.0
21/03:30am 27.5 28.3 23.1 77 3.0 W 24 30 13 16 1010.4 1010.3 0.0
21/03:00am 27.6 27.9 23.0 76 3.1 WNW 26 28 14 15 1010.3 1010.2 0.0
21/02:30am 27.6 28.4 23.2 77 3.0 WNW 24 26 13 14 1010.4 1010.3 0.0
21/02:00am 27.6 28.7 23.0 76 3.1 WNW 22 26 12 14 1010.5 1010.4 0.0
21/01:30am 27.6 28.8 23.2 77 3.0 WNW 22 26 12 14 1010.6 1010.5 0.0
21/01:00am 27.6 28.9 23.4 78 2.9 WNW 22 26 12 14 1010.8 1010.7 0.0
21/12:30am 27.6 29.4 23.6 79 2.7 WNW 20 22 11 12 1010.9 1010.8 0.0
21/12:00am 27.4 29.1 23.4 79 2.7 WNW 20 20 11 11 1011.1 1011.0 0.0
 
Date/Time
WST
Temp
°C
App
Temp
°C
Dew
Point
°C
Rel
Hum
%
Delta-T
°C
Wind Press
QNH
hPa
Press
MSL
hPa
Rain since
9am
mm
Dir  Spd
km/h
Gust
km/h
Spd
kts
Gust
kts
20/11:30pm 27.5 30.1 23.9 81 2.5 WNW 17 19 9 10 1011.5 1011.4 0.0
20/11:00pm 27.5 30.4 23.9 81 2.5 WNW 15 17 8 9 1011.7 1011.6 0.0
20/10:30pm 27.4 30.7 23.8 81 2.5 WNW 13 17 7 9 1012.0 1011.9 0.0
20/10:00pm 27.5 30.8 23.9 81 2.5 WNW 13 17 7 9 1012.2 1012.1 0.0
20/09:30pm 27.2 30.4 23.7 81 2.4 WNW 13 17 7 9 1012.3 1012.2 0.0
20/09:00pm 27.4 30.2 23.6 80 2.6 WNW 15 19 8 10 1012.1 1012.0 0.0
20/08:30pm 27.5 29.8 23.5 79 2.7 W 17 19 9 10 1012.0 1011.9 0.0
20/08:00pm 27.6 29.9 23.4 78 2.9 WNW 17 20 9 11 1011.7 1011.6 0.0
20/07:30pm 27.7 29.3 23.3 77 3.0 WNW 20 22 11 12 1011.2 1011.1 0.0
20/07:00pm 27.8 29.0 23.2 76 3.1 WNW 22 26 12 14 1010.9 1010.8 0.0
20/06:30pm 27.9 28.8 23.3 76 3.1 WNW 24 28 13 15 1010.6 1010.5 0.0
20/06:00pm 27.9 28.7 23.1 75 3.3 WNW 24 28 13 15 1010.3 1010.2 0.0
20/05:30pm 28.2 27.8 23.1 74 3.5 WNW 30 35 16 19 1009.8 1009.7 0.0
20/05:00pm 28.9 28.1 23.1 71 4.0 WNW 32 37 17 20 1009.5 1009.4 0.0
20/04:30pm 29.4 29.2 23.4 70 4.1 WNW 30 35 16 19 1009.3 1009.2 0.0
20/04:00pm 30.0 29.4 22.7 65 5.0 NW 30 35 16 19 1009.1 1009.0 0.0
20/03:30pm 30.0 29.4 22.7 65 5.0 NW 30 35 16 19 1008.9 1008.8 0.0
20/03:00pm 30.6 30.5 23.5 66 4.9 NW 30 35 16 19 1008.9 1008.8 0.0
20/02:30pm 31.1 30.3 23.0 62 5.6 NW 32 35 17 19 1009.2 1009.1 0.0
20/02:00pm 31.2 31.3 23.3 63 5.5 WNW 28 32 15 17 1009.6 1009.5 0.0
20/01:30pm 30.7 30.9 23.4 65 5.0 WNW 28 32 15 17 1010.0 1009.9 0.0
20/01:00pm 31.0 32.2 23.9 66 4.9 NW 24 28 13 15 1010.3 1010.2 0.0
20/12:30pm 31.2 32.6 23.6 64 5.3 WNW 22 26 12 14 1010.7 1010.6 0.0
20/12:00pm 31.4 33.3 23.8 64 5.3 WNW 20 24 11 13 1011.0 1010.9 0.0
20/11:30am 31.6 33.8 23.2 61 5.8 W 17 20 9 11 1011.2 1011.1 0.0
20/11:00am 31.5 32.4 21.9 56 6.5 WSW 20 24 11 13 1011.4 1011.3 0.0
20/10:30am 30.8 31.7 21.6 58 6.2 WSW 19 22 10 12 1012.0 1011.9 0.0
20/10:00am 30.9 31.9 22.2 59 5.9 WSW 20 24 11 13 1012.5 1012.4 0.0
20/09:30am 30.5 32.3 23.2 65 5.0 WSW 19 20 10 11 1013.0 1012.9 0.0
20/09:00am 30.8 32.3 23.7 66 4.9 WSW 22 26 12 14 1013.1 1013.0 0.0
20/08:30am 30.0 31.6 23.2 67 4.7 WSW 20 26 11 14 1013.2 1013.1 0.0
20/08:00am 29.9 31.7 23.3 67 4.5 SW 19 22 10 12 1013.2 1013.1 0.0
20/07:30am 29.3 31.6 23.5 71 4.0 SW 17 20 9 11 1013.2 1013.1 0.0
20/07:00am 28.7 30.8 23.1 71 3.8 SW 17 20 9 11 1013.0 1012.9 0.0
20/06:30am 28.1 30.9 23.7 77 3.0 SW 15 19 8 10 1012.7 1012.6 0.0
20/06:00am 27.4 29.1 23.0 77 3.0 SW 19 22 10 12 1012.4 1012.3 0.0
20/05:30am 27.0 29.2 23.3 80 2.5 SW 17 20 9 11 1012.2 1012.1 0.0
20/05:00am 27.0 28.8 23.3 80 2.5 WSW 19 20 10 11 1011.8 1011.7 0.0
20/04:30am 27.0 29.3 23.5 81 2.4 WSW 17 19 9 10 1011.6 1011.5 0.0
20/04:00am 27.0 29.4 23.0 79 2.7 WSW 15 17 8 9 1011.2 1011.1 0.0
20/03:30am 27.2 29.1 22.8 77 3.0 WSW 17 20 9 11 1011.2 1011.1 0.0
20/03:00am 27.2 28.8 22.8 77 3.0 WSW 19 22 10 12 1011.1 1011.0 0.0
20/02:30am 27.3 29.1 23.5 80 2.6 WSW 20 24 11 13 1011.0 1010.9 0.0
20/02:00am 27.2 28.7 23.7 81 2.4 WSW 22 26 12 14 1011.1 1011.0 0.0
20/01:30am 27.1 29.0 23.8 82 2.3 WSW 20 24 11 13 1011.3 1011.2 0.0
20/01:00am 27.2 29.3 24.1 83 2.1 WSW 20 24 11 13 1011.5 1011.4 0.0
20/12:30am 27.1 29.3 24.2 84 2.0 WSW 20 24 11 13 1011.7 1011.6 0.0
20/12:00am 27.3 29.7 24.6 85 1.9 WSW 20 24 11 13 1012.1 1012.0 0.0
 
Date/Time
WST
Temp
°C
App
Temp
°C
Dew
Point
°C
Rel
Hum
%
Delta-T
°C
Wind Press
QNH
hPa
Press
MSL
hPa
Rain since
9am
mm
Dir  Spd
km/h
Gust
km/h
Spd
kts
Gust
kts
19/11:30pm 27.3 29.8 24.4 84 2.0 WSW 19 22 10 12 1012.4 1012.3 0.0
19/11:00pm 27.4 30.2 24.3 83 2.1 W 17 20 9 11 1012.7 1012.6 0.0
19/10:30pm 27.4 29.7 24.1 82 2.3 W 19 22 10 12 1012.7 1012.6 0.0
19/10:00pm 27.4 29.8 24.3 83 2.1 W 19 20 10 11 1012.7 1012.6 0.0
19/09:30pm 27.5 30.0 24.4 83 2.1 W 19 20 10 11 1012.7 1012.6 0.0
19/09:00pm 27.3 30.0 24.2 83 2.1 W 17 20 9 11 1012.7 1012.6 0.0
19/08:30pm 27.4 30.2 24.3 83 2.1 W 17 20 9 11 1012.5 1012.4 0.0
19/08:00pm 27.5 29.8 24.1 82 2.3 W 19 20 10 11 1012.4 1012.3 0.0
19/07:30pm 27.6 30.0 24.2 82 2.4 W 19 20 10 11 1012.1 1012.0 0.0
19/07:00pm 27.7 30.0 24.1 81 2.5 WNW 19 20 10 11 1011.8 1011.7 0.0
19/06:30pm 27.8 30.3 23.8 79 2.8 WNW 17 20 9 11 1011.2 1011.1 0.0
19/06:00pm 28.0 30.2 24.0 79 2.8 WNW 19 22 10 12 1010.8 1010.7 0.0
19/05:30pm 28.2 30.3 23.8 77 3.0 WNW 19 24 10 13 1010.3 1010.2 0.0
19/05:00pm 29.0 30.9 23.7 73 3.7 WNW 20 24 11 13 1010.2 1010.1 0.0
19/04:30pm 29.5 31.2 23.4 69 4.2 WNW 20 24 11 13 1010.1 1010.0 0.0
19/04:00pm 30.5 32.7 24.2 69 4.4 W 20 24 11 13 1010.0 1009.9 0.0
19/03:30pm 30.2 31.6 22.9 65 5.0 WNW 20 24 11 13 1010.2 1010.1 0.0
19/03:00pm 30.2 31.7 23.1 65 4.9 WNW 20 24 11 13 1010.2 1010.1 0.0
19/02:30pm 30.8 33.1 24.4 68 4.5 WNW 20 24 11 13 1010.4 1010.3 0.0
19/02:00pm 30.4 32.8 23.6 67 4.7 WNW 17 20 9 11 1010.6 1010.5 0.0
19/01:30pm 30.7 33.1 23.6 66 4.9 WNW 17 20 9 11 1011.1 1011.0 0.0
19/01:00pm 30.4 32.9 23.8 68 4.6 WNW 17 19 9 10 1011.4 1011.3 0.0
19/12:30pm 30.4 32.8 23.6 67 4.7 WNW 17 19 9 10 1012.0 1011.9 0.0
19/12:00pm 29.6 32.1 23.1 68 4.5 WNW 15 17 8 9 1012.5 1012.4 0.0
19/11:30am 30.1 32.5 23.0 65 4.9 W 15 17 8 9 1012.8 1012.7 0.0
19/11:00am 30.7 33.5 23.6 66 4.9 W 15 19 8 10 1013.2 1013.1 0.0
19/10:30am 30.2 32.3 23.1 65 4.9 WSW 17 20 9 11 1013.6 1013.5 0.0

Other formats

Comma delimited format used in spreadsheet applications
http://www.bom.gov.au/fwo/IDW60801/IDW60801.94102.axf

JavaScript Object Notation format (JSON) in row-major order
http://www.bom.gov.au/fwo/IDW60801/IDW60801.94102.json

Data quality

Most of these data are generated automatically and are frequently updated. Quality checks on data are not normally performed. It is possible for incorrect values to appear. Refer to information at About Latest Weather Observations and please check the disclaimer before using these data.